createdAt,value
2022-12-17T00:01:41.576Z,79.47
2022-12-17T00:04:26.830Z,79.82
2022-12-17T00:07:12.116Z,79.25
2022-12-17T00:09:58.827Z,78.66
2022-12-17T00:12:44.054Z,78.88
2022-12-17T00:15:29.500Z,78.98
2022-12-17T00:18:21.672Z,79.34
2022-12-17T00:21:11.445Z,79.05
2022-12-17T00:23:58.745Z,78.98
2022-12-17T00:26:45.646Z,79.77
2022-12-17T00:29:27.416Z,78.46
2022-12-17T00:32:13.586Z,78.93
2022-12-17T00:34:58.791Z,79.01
2022-12-17T00:37:44.215Z,79.19
2022-12-17T00:40:30.123Z,79.40
2022-12-17T00:43:20.640Z,79.02
2022-12-17T00:46:07.056Z,78.69
2022-12-17T00:48:52.481Z,79.56
2022-12-17T00:51:38.299Z,79.47
2022-12-17T00:54:25.102Z,79.23
2022-12-17T00:57:10.914Z,78.77
2022-12-17T00:59:57.368Z,78.77
2022-12-17T01:02:43.229Z,79.93
2022-12-17T01:05:29.470Z,79.15
2022-12-17T01:08:15.102Z,78.74
2022-12-17T01:11:00.823Z,79.77
2022-12-17T01:13:46.025Z,79.31
2022-12-17T01:16:33.974Z,78.82
2022-12-17T01:19:19.342Z,79.06
2022-12-17T01:22:04.647Z,77.88
2022-12-17T01:24:49.881Z,77.01
2022-12-17T01:27:35.124Z,77.59
2022-12-17T01:30:21.157Z,78.05
2022-12-17T01:33:08.052Z,78.69
2022-12-17T01:35:53.310Z,77.07
2022-12-17T01:38:46.884Z,77.58
2022-12-17T01:41:32.109Z,78.53
2022-12-17T01:44:17.337Z,78.05
2022-12-17T01:47:09.670Z,77.99
2022-12-17T01:49:56.172Z,78.17
2022-12-17T01:52:49.843Z,78.05
2022-12-17T01:55:37.337Z,78.62
2022-12-17T01:58:23.294Z,76.92
2022-12-17T02:01:08.563Z,77.10
2022-12-17T02:03:55.818Z,77.37
2022-12-17T02:06:46.101Z,76.93
2022-12-17T02:09:41.704Z,76.63
2022-12-17T02:12:36.085Z,77.14
2022-12-17T02:15:39.149Z,77.17
2022-12-17T02:18:29.142Z,76.59
2022-12-17T02:21:17.563Z,77.04
2022-12-17T02:24:14.245Z,76.74
2022-12-17T02:27:17.521Z,75.98
2022-12-17T02:30:09.483Z,77.32
2022-12-17T02:32:58.014Z,77.24
2022-12-17T02:35:47.889Z,78.04
2022-12-17T02:38:38.207Z,78.91
2022-12-17T02:41:25.568Z,78.11
2022-12-17T02:44:13.975Z,78.05
2022-12-17T02:47:00.785Z,77.97
2022-12-17T02:49:46.202Z,78.46
2022-12-17T02:52:35.161Z,78.26
2022-12-17T02:55:20.652Z,77.80
2022-12-17T02:58:06.766Z,77.51
2022-12-17T03:00:53.279Z,77.49
2022-12-17T03:03:39.050Z,77.51
2022-12-17T03:06:24.895Z,77.58
2022-12-17T03:09:10.148Z,77.15
2022-12-17T03:11:55.515Z,76.42
2022-12-17T03:14:40.725Z,76.70
2022-12-17T03:17:27.554Z,76.88
2022-12-17T03:20:13.069Z,76.30
2022-12-17T03:22:58.609Z,76.82
2022-12-17T03:25:44.345Z,76.41
2022-12-17T03:28:30.625Z,76.81
2022-12-17T03:31:16.466Z,76.28
2022-12-17T03:34:03.469Z,76.92
2022-12-17T03:36:49.369Z,76.92
2022-12-17T03:39:34.740Z,75.46
2022-12-17T03:42:19.951Z,76.00
2022-12-17T03:45:05.096Z,76.19
2022-12-17T03:47:50.458Z,76.63
2022-12-17T03:50:37.357Z,76.20
2022-12-17T03:53:22.969Z,76.35
2022-12-17T03:56:08.382Z,75.82
2022-12-17T03:58:53.513Z,76.16
2022-12-17T04:01:38.757Z,77.25
2022-12-17T04:04:35.489Z,76.29
2022-12-17T04:07:18.626Z,76.22
2022-12-17T04:10:03.985Z,76.02
2022-12-17T04:12:49.275Z,76.27
2022-12-17T04:15:34.929Z,75.87
2022-12-17T04:18:20.208Z,76.15
2022-12-17T04:21:05.474Z,75.90
2022-12-17T04:23:52.131Z,76.20
2022-12-17T04:26:37.255Z,76.98
2022-12-17T04:29:22.358Z,76.77
2022-12-17T04:32:22.088Z,76.77
2022-12-17T04:35:07.855Z,76.95
2022-12-17T04:37:53.097Z,76.66
2022-12-17T04:40:39.976Z,76.49
2022-12-17T04:43:26.636Z,76.34
2022-12-17T04:46:11.843Z,76.07
2022-12-17T04:48:57.069Z,75.97
2022-12-17T04:51:42.574Z,76.78
2022-12-17T04:54:27.988Z,76.26
2022-12-17T04:57:15.025Z,75.79
2022-12-17T05:00:14.733Z,75.74
2022-12-17T05:03:00.455Z,76.16
2022-12-17T05:05:45.789Z,76.70
2022-12-17T05:08:32.302Z,76.06
2022-12-17T05:11:20.953Z,76.09
2022-12-17T05:14:08.133Z,76.30
2022-12-17T05:16:53.324Z,75.93
2022-12-17T05:19:38.907Z,75.99
2022-12-17T05:22:24.153Z,75.57
2022-12-17T05:25:09.516Z,75.72
2022-12-17T05:27:54.618Z,76.01
2022-12-17T05:30:37.728Z,76.25
2022-12-17T05:33:23.188Z,75.78
2022-12-17T05:36:08.412Z,75.35
2022-12-17T05:38:57.714Z,76.03
2022-12-17T05:41:42.905Z,76.07
2022-12-17T05:44:28.992Z,75.93
2022-12-17T05:47:16.208Z,76.14
2022-12-17T05:49:58.462Z,76.44
2022-12-17T05:52:44.280Z,75.97
2022-12-17T05:55:30.044Z,75.82
2022-12-17T05:58:20.905Z,76.06
2022-12-17T06:01:06.641Z,76.02
2022-12-17T06:03:53.670Z,75.77
2022-12-17T06:06:39.233Z,75.77
2022-12-17T06:09:25.102Z,75.97
2022-12-17T06:12:10.636Z,77.04
2022-12-17T06:14:56.416Z,77.23
2022-12-17T06:17:41.822Z,78.06
2022-12-17T06:20:29.460Z,78.20
2022-12-17T06:23:18.764Z,79.03
2022-12-17T06:26:04.369Z,79.53
2022-12-17T06:28:50.185Z,79.69
2022-12-17T06:31:35.936Z,80.71
2022-12-17T06:34:21.284Z,81.16
2022-12-17T06:37:08.009Z,81.56
2022-12-17T06:39:53.198Z,82.12
2022-12-17T06:42:38.386Z,82.91
2022-12-17T06:45:24.598Z,82.87
2022-12-17T06:48:09.833Z,82.75
2022-12-17T06:50:55.824Z,82.93
2022-12-17T06:53:42.311Z,83.14
2022-12-17T06:56:27.501Z,82.54
2022-12-17T06:59:12.966Z,82.75
2022-12-17T07:01:58.286Z,83.49
2022-12-17T07:04:43.605Z,83.53
2022-12-17T07:07:29.098Z,83.07
2022-12-17T07:10:15.516Z,82.51
2022-12-17T07:13:01.324Z,82.16
2022-12-17T07:15:46.626Z,82.50
2022-12-17T07:18:31.753Z,82.08
2022-12-17T07:21:16.190Z,81.39
2022-12-17T07:24:01.350Z,81.62
2022-12-17T07:26:47.885Z,81.40
2022-12-17T07:29:33.267Z,81.49
2022-12-17T07:32:18.666Z,81.18
2022-12-17T07:35:03.962Z,82.16
2022-12-17T07:37:49.042Z,81.33
2022-12-17T07:40:34.475Z,81.18
2022-12-17T07:43:29.084Z,82.49
2022-12-17T07:46:14.493Z,81.53
2022-12-17T07:48:59.751Z,82.17
2022-12-17T07:51:45.149Z,81.51
2022-12-17T07:54:26.901Z,80.92
2022-12-17T07:57:12.532Z,80.90
2022-12-17T07:59:59.383Z,82.18
2022-12-17T08:02:44.898Z,81.81
2022-12-17T08:05:30.250Z,81.50
2022-12-17T08:08:15.556Z,82.16
2022-12-17T08:11:01.095Z,82.85
2022-12-17T08:13:46.560Z,83.56
2022-12-17T08:16:33.773Z,84.10
2022-12-17T08:19:19.748Z,84.66
2022-12-17T08:22:05.071Z,84.95
2022-12-17T08:24:50.578Z,85.30
2022-12-17T08:27:35.731Z,85.80
2022-12-17T08:30:21.121Z,85.67
2022-12-17T08:33:07.735Z,86.08
2022-12-17T08:36:01.397Z,85.75
2022-12-17T08:38:46.767Z,86.71
2022-12-17T08:41:32.080Z,86.95
2022-12-17T08:44:17.505Z,87.80
2022-12-17T08:47:02.924Z,88.73
2022-12-17T08:49:49.618Z,89.37
2022-12-17T08:52:35.077Z,89.40
2022-12-17T08:55:20.529Z,89.56
2022-12-17T08:58:11.900Z,90.55
2022-12-17T09:00:57.250Z,89.78
2022-12-17T09:03:43.534Z,89.23
2022-12-17T09:06:33.345Z,88.37
2022-12-17T09:09:21.450Z,88.46
2022-12-17T09:12:06.659Z,88.43
2022-12-17T09:14:51.957Z,88.07
2022-12-17T09:17:37.126Z,87.00
2022-12-17T09:20:28.949Z,87.00
2022-12-17T09:23:16.096Z,87.39
2022-12-17T09:26:01.454Z,87.62
2022-12-17T09:28:46.640Z,87.83
2022-12-17T09:31:37.065Z,87.65
2022-12-17T09:34:23.020Z,87.79
2022-12-17T09:37:08.146Z,87.53
2022-12-17T09:39:56.447Z,87.86
2022-12-17T09:42:51.053Z,87.75
2022-12-17T09:45:44.273Z,87.25
2022-12-17T09:48:40.301Z,87.58
2022-12-17T09:51:38.785Z,87.72
2022-12-17T09:54:31.165Z,87.76
2022-12-17T09:57:18.256Z,87.78
2022-12-17T10:00:03.454Z,87.77
2022-12-17T10:02:58.285Z,87.42
2022-12-17T10:05:48.029Z,87.77
2022-12-17T10:08:37.304Z,88.45
2022-12-17T10:11:34.843Z,87.88
2022-12-17T10:14:30.422Z,88.32
2022-12-17T10:17:15.702Z,87.67
2022-12-17T10:20:01.353Z,87.47
2022-12-17T10:22:46.780Z,86.88
2022-12-17T10:25:34.565Z,87.33
2022-12-17T10:28:21.483Z,87.06
2022-12-17T10:31:08.161Z,87.11
2022-12-17T10:33:56.566Z,87.20
2022-12-17T10:36:43.789Z,87.66
2022-12-17T10:39:35.842Z,87.49
2022-12-17T10:42:21.622Z,87.10
2022-12-17T10:45:06.932Z,86.70
2022-12-17T10:47:53.518Z,86.87
2022-12-17T10:50:41.448Z,86.57
2022-12-17T10:53:36.646Z,86.67
2022-12-17T10:56:23.142Z,86.26
2022-12-17T10:59:11.105Z,86.56
2022-12-17T11:01:58.533Z,86.90
2022-12-17T11:04:46.857Z,86.40
2022-12-17T11:07:36.236Z,85.99
2022-12-17T11:10:25.059Z,85.88
2022-12-17T11:13:15.579Z,86.47
2022-12-17T11:16:03.797Z,86.46
2022-12-17T11:19:07.127Z,86.17
2022-12-17T11:21:59.383Z,86.29
2022-12-17T11:24:48.074Z,86.00
2022-12-17T11:27:37.079Z,85.95
2022-12-17T11:30:31.077Z,85.24
2022-12-17T11:33:27.663Z,85.12
2022-12-17T11:36:17.231Z,85.11
2022-12-17T11:39:11.555Z,85.17
2022-12-17T11:42:11.254Z,85.04
2022-12-17T11:45:10.453Z,85.32
2022-12-17T11:48:05.415Z,85.67
2022-12-17T11:50:56.570Z,85.79
2022-12-17T11:54:01.683Z,85.54
2022-12-17T11:56:53.803Z,85.89
2022-12-17T11:59:50.931Z,85.71
2022-12-17T12:02:54.119Z,85.74
2022-12-17T12:05:53.431Z,85.25
2022-12-17T12:08:44.834Z,85.77
2022-12-17T12:11:42.845Z,86.05
2022-12-17T12:14:43.058Z,86.08
2022-12-17T12:17:45.480Z,85.94
2022-12-17T12:20:48.029Z,85.44
2022-12-17T12:23:43.889Z,85.16
2022-12-17T12:26:34.082Z,84.86
2022-12-17T12:29:36.711Z,84.94
2022-12-17T12:32:32.115Z,85.22
2022-12-17T12:35:20.573Z,85.28
2022-12-17T12:38:08.808Z,84.94
2022-12-17T12:41:01.132Z,85.02
2022-12-17T12:43:48.755Z,85.02
2022-12-17T12:46:38.512Z,84.95
2022-12-17T12:49:35.272Z,84.98
2022-12-17T12:52:21.048Z,84.44
2022-12-17T12:55:11.404Z,85.44
2022-12-17T12:58:00.747Z,84.23
2022-12-17T13:00:52.679Z,83.91
2022-12-17T13:03:50.201Z,83.58
2022-12-17T13:06:41.713Z,84.48
2022-12-17T13:09:21.773Z,84.20
2022-12-17T13:11:51.749Z,83.72
2022-12-17T13:14:23.838Z,83.90
2022-12-17T13:16:55.580Z,83.54
2022-12-17T13:19:36.718Z,83.15
2022-12-17T13:22:29.816Z,83.59
2022-12-17T13:25:15.676Z,84.28
2022-12-17T13:27:44.232Z,84.05
2022-12-17T13:30:36.171Z,83.62
2022-12-17T13:33:26.049Z,83.70
2022-12-17T13:36:04.716Z,83.57
2022-12-17T13:38:45.675Z,83.21
2022-12-17T13:41:15.680Z,83.06
2022-12-17T13:43:47.702Z,83.45
2022-12-17T13:46:20.225Z,83.29
2022-12-17T13:48:53.967Z,83.09
2022-12-17T13:51:23.891Z,82.19
2022-12-17T13:53:58.272Z,82.84
2022-12-17T13:56:28.722Z,82.12
2022-12-17T13:59:00.892Z,81.83
2022-12-17T14:01:31.283Z,82.33
2022-12-17T14:04:08.187Z,82.34
2022-12-17T14:06:39.498Z,83.89
2022-12-17T14:09:08.719Z,83.16
2022-12-17T14:11:56.301Z,83.62
2022-12-17T14:14:30.954Z,84.04
2022-12-17T14:16:59.322Z,84.00
2022-12-17T14:19:28.494Z,84.03
2022-12-17T14:21:57.591Z,83.36
2022-12-17T14:24:29.524Z,83.64
2022-12-17T14:26:59.685Z,83.70
2022-12-17T14:29:29.853Z,83.87
2022-12-17T14:31:59.424Z,84.02
2022-12-17T14:34:27.657Z,84.17
2022-12-17T14:36:58.380Z,84.01
2022-12-17T14:39:30.121Z,84.05
2022-12-17T14:42:17.009Z,84.00
2022-12-17T14:44:53.107Z,84.20
2022-12-17T14:47:24.539Z,84.17
2022-12-17T14:50:02.353Z,84.42
2022-12-17T14:52:40.674Z,83.43
2022-12-17T14:55:37.153Z,82.28
2022-12-17T14:58:16.701Z,82.00
2022-12-17T15:00:46.956Z,83.91
2022-12-17T15:03:20.358Z,83.07
2022-12-17T15:05:52.681Z,82.59
2022-12-17T15:08:21.267Z,82.20
2022-12-17T15:10:50.934Z,83.41
2022-12-17T15:13:18.823Z,83.53
2022-12-17T15:15:47.147Z,83.53
2022-12-17T15:18:14.962Z,83.20
2022-12-17T15:20:43.717Z,83.31
2022-12-17T15:23:17.228Z,82.87
2022-12-17T15:25:47.038Z,81.83
2022-12-17T15:28:17.751Z,81.77
2022-12-17T15:30:46.243Z,82.55
2022-12-17T15:33:14.934Z,81.87
2022-12-17T15:35:43.380Z,81.87
2022-12-17T15:38:12.712Z,81.20
2022-12-17T15:40:41.111Z,81.97
2022-12-17T15:43:12.867Z,82.38
2022-12-17T15:45:44.246Z,81.72
2022-12-17T15:48:13.629Z,82.16
2022-12-17T15:50:41.954Z,82.62
2022-12-17T15:53:10.586Z,82.01
2022-12-17T15:55:39.550Z,82.04
2022-12-17T15:58:09.061Z,82.43
2022-12-17T16:00:37.081Z,83.61
2022-12-17T16:03:06.567Z,82.48
2022-12-17T16:05:34.572Z,81.46
2022-12-17T16:08:03.114Z,81.09
2022-12-17T16:10:31.657Z,82.69
2022-12-17T16:12:59.623Z,83.13
2022-12-17T16:15:27.608Z,82.72
2022-12-17T16:17:55.802Z,82.49
2022-12-17T16:20:25.504Z,81.15
2022-12-17T16:22:53.398Z,81.12
2022-12-17T16:25:21.225Z,82.35
2022-12-17T16:27:49.071Z,81.73
2022-12-17T16:30:17.236Z,81.34
2022-12-17T16:32:45.039Z,81.42
2022-12-17T16:35:14.022Z,80.50
2022-12-17T16:37:43.244Z,81.87
2022-12-17T16:40:12.483Z,82.80
2022-12-17T16:42:40.330Z,81.72
2022-12-17T16:45:09.140Z,80.44
2022-12-17T16:47:37.017Z,80.91
2022-12-17T16:50:05.926Z,80.88
2022-12-17T16:52:35.045Z,80.38
2022-12-17T16:55:04.286Z,80.48
2022-12-17T16:57:32.076Z,81.11
2022-12-17T16:59:59.946Z,81.63
2022-12-17T17:02:27.993Z,80.73
2022-12-17T17:04:56.005Z,80.87
2022-12-17T17:07:23.814Z,81.67
2022-12-17T17:09:51.758Z,81.41
2022-12-17T17:12:20.900Z,80.34
2022-12-17T17:14:51.413Z,80.67
2022-12-17T17:17:19.219Z,80.06
2022-12-17T17:20:07.725Z,80.05
2022-12-17T17:22:35.593Z,80.65
2022-12-17T17:25:03.604Z,80.81
2022-12-17T17:27:32.901Z,80.79
2022-12-17T17:30:03.489Z,80.65
2022-12-17T17:32:32.057Z,81.50
2022-12-17T17:34:59.979Z,81.07
2022-12-17T17:37:27.917Z,81.20
2022-12-17T17:39:55.918Z,81.93
2022-12-17T17:42:23.727Z,80.87
2022-12-17T17:44:52.878Z,80.50
2022-12-17T17:47:20.737Z,81.58
2022-12-17T17:49:48.518Z,81.25
2022-12-17T17:52:17.118Z,81.21
2022-12-17T17:54:45.051Z,81.44
2022-12-17T17:57:12.804Z,80.48
2022-12-17T17:59:40.689Z,79.81
2022-12-17T18:02:11.119Z,79.51
2022-12-17T18:04:39.855Z,79.65
2022-12-17T18:09:56.121Z,79.25
2022-12-17T18:12:41.561Z,78.31
2022-12-17T18:15:18.600Z,78.85
2022-12-17T18:17:51.816Z,78.86
2022-12-17T18:20:20.418Z,79.35
2022-12-17T18:22:48.247Z,79.20
2022-12-17T18:25:16.524Z,79.35
2022-12-17T18:27:44.500Z,79.23
2022-12-17T18:30:13.404Z,79.05
2022-12-17T18:32:42.239Z,78.62
2022-12-17T18:35:11.609Z,79.20
2022-12-17T18:37:39.613Z,78.54
2022-12-17T18:40:08.802Z,78.91
2022-12-17T18:42:54.058Z,78.88
2022-12-17T18:45:22.164Z,79.81
2022-12-17T18:47:51.834Z,79.82
2022-12-17T18:50:21.071Z,79.99
2022-12-17T18:52:48.875Z,80.13
2022-12-17T18:55:17.007Z,79.92
2022-12-17T18:57:44.808Z,78.95
2022-12-17T19:00:14.033Z,79.40
2022-12-17T19:02:42.103Z,78.94
2022-12-17T19:05:10.387Z,78.84
2022-12-17T19:07:39.623Z,78.96
2022-12-17T19:10:08.425Z,78.84
2022-12-17T19:12:36.290Z,78.26
2022-12-17T19:15:05.034Z,78.68
2022-12-17T19:17:32.820Z,78.30
2022-12-17T19:20:00.643Z,79.17
2022-12-17T19:22:28.433Z,79.09
2022-12-17T19:24:57.667Z,78.75
2022-12-17T19:27:25.724Z,78.71
2022-12-17T19:29:54.897Z,79.01
2022-12-17T19:32:23.542Z,78.99
2022-12-17T19:34:51.362Z,78.42
2022-12-17T19:37:19.209Z,78.69
2022-12-17T19:39:47.070Z,79.33
2022-12-17T19:42:25.435Z,78.33
2022-12-17T19:44:54.007Z,78.47
2022-12-17T19:47:22.515Z,78.01
2022-12-17T19:49:50.645Z,78.22
2022-12-17T19:52:18.515Z,77.82
2022-12-17T19:54:46.336Z,78.79
2022-12-17T19:57:14.153Z,78.52
2022-12-17T19:59:43.324Z,78.42
2022-12-17T20:02:11.474Z,78.12
2022-12-17T20:04:39.416Z,77.77
2022-12-17T20:07:07.210Z,78.15
2022-12-17T20:09:34.998Z,77.28
2022-12-17T20:12:02.781Z,78.02
2022-12-17T20:14:31.529Z,77.94
2022-12-17T20:17:02.199Z,77.65
2022-12-17T20:19:31.925Z,77.84
2022-12-17T20:22:02.031Z,78.13
2022-12-17T20:24:31.948Z,78.30
2022-12-17T20:27:01.192Z,78.48
2022-12-17T20:29:29.511Z,78.16
2022-12-17T20:31:57.558Z,77.89
2022-12-17T20:34:29.608Z,77.74
2022-12-17T20:36:57.434Z,77.52
2022-12-17T20:39:27.794Z,77.46
2022-12-17T20:41:56.690Z,78.09
2022-12-17T20:44:24.616Z,77.21
2022-12-17T20:46:52.467Z,76.40
2022-12-17T20:49:20.286Z,76.25
2022-12-17T20:51:49.467Z,76.26
2022-12-17T20:54:17.250Z,76.40
2022-12-17T20:56:45.096Z,76.55
2022-12-17T20:59:16.279Z,76.53
2022-12-17T21:01:44.385Z,75.90
2022-12-17T21:04:13.969Z,76.15
2022-12-17T21:06:43.936Z,76.52
2022-12-17T21:09:15.781Z,76.78
2022-12-17T21:11:43.616Z,76.75
2022-12-17T21:14:14.289Z,76.27
2022-12-17T21:16:43.345Z,76.15
2022-12-17T21:19:14.850Z,76.63
2022-12-17T21:21:42.875Z,76.12
2022-12-17T21:24:11.035Z,76.25
2022-12-17T21:26:42.542Z,77.21
2022-12-17T21:29:11.273Z,76.55
2022-12-17T21:31:40.917Z,76.92
2022-12-17T21:34:12.174Z,76.58
2022-12-17T21:36:40.570Z,77.35
2022-12-17T21:39:10.027Z,76.75
2022-12-17T21:41:44.779Z,76.40
2022-12-17T21:44:15.884Z,76.45
2022-12-17T21:46:50.149Z,76.84
2022-12-17T21:49:18.829Z,76.63
2022-12-17T21:51:47.031Z,76.97
2022-12-17T21:54:19.316Z,77.94
2022-12-17T21:56:49.003Z,77.65
2022-12-17T21:59:17.974Z,77.20
2022-12-17T22:01:45.999Z,77.62
2022-12-17T22:04:14.280Z,77.03
2022-12-17T22:06:47.893Z,76.07
2022-12-17T22:09:36.817Z,76.50
2022-12-17T22:12:37.799Z,76.60
2022-12-17T22:15:08.366Z,76.17
2022-12-17T22:17:36.707Z,75.89
2022-12-17T22:20:05.375Z,76.48
2022-12-17T22:22:33.350Z,76.19
2022-12-17T22:25:07.987Z,76.19
2022-12-17T22:27:39.499Z,75.96
2022-12-17T22:30:26.401Z,75.63
2022-12-17T22:33:05.179Z,76.45
2022-12-17T22:36:21.317Z,76.76
2022-12-17T22:41:40.561Z,75.76
2022-12-17T22:44:34.254Z,76.20
2022-12-17T22:44:46.802Z,75.94
2022-12-17T22:47:09.846Z,74.57
2022-12-17T22:49:40.670Z,74.86
2022-12-17T22:52:11.261Z,75.52
2022-12-17T22:54:39.471Z,75.21
2022-12-17T22:57:34.838Z,74.84
2022-12-17T22:59:59.856Z,74.74
2022-12-17T23:02:27.717Z,75.79
2022-12-17T23:04:55.553Z,75.13
2022-12-17T23:07:26.929Z,75.29
2022-12-17T23:09:59.320Z,75.38
2022-12-17T23:12:43.845Z,75.62
2022-12-17T23:15:13.196Z,75.47
2022-12-17T23:17:41.094Z,75.89
2022-12-17T23:20:09.871Z,75.36
2022-12-17T23:22:38.067Z,75.52
2022-12-17T23:25:06.689Z,75.92
2022-12-17T23:27:35.118Z,75.84
2022-12-17T23:30:03.341Z,75.23
2022-12-17T23:32:35.690Z,75.96
2022-12-17T23:35:03.591Z,75.53
2022-12-17T23:37:36.562Z,75.82
2022-12-17T23:40:08.943Z,75.07
2022-12-17T23:42:36.750Z,75.66
2022-12-17T23:45:05.890Z,75.00
2022-12-17T23:47:35.163Z,75.34
2022-12-17T23:50:03.018Z,75.74
2022-12-17T23:52:31.379Z,76.14
2022-12-17T23:54:59.174Z,76.05
2022-12-17T23:57:27.610Z,74.51
2022-12-17T23:59:55.613Z,74.46
